.
WxDataArchive / Data Records for 2010-05-22
2010-05-21 May 2010 2010-05-23

Data Records for Saturday, 22 May 2010

Time	Temp	Chill	HIndex	Humid	Dewpt	 Wind 	HiWind	WindDir	Rain 	Barom 
-----	----	-----	------	-----	-----	------	------	-------	-----	----- 
00:00	62.0	62.0	62.0	96	60.8	0	1	45	0.00	29.879 
00:05	62.0	62.0	62.0	96	60.8	0	2	45	0.00	29.879 
00:10	61.8	61.8	61.8	96	60.6	0	0	---	0.00	29.879 
00:15	62.0	62.0	62.0	96	60.8	0	2	45	0.00	29.880 
00:20	62.0	62.0	62.0	96	60.8	1	3	45	0.00	29.880 
00:25	62.0	62.0	62.0	96	60.8	0	2	45	0.00	29.880 
00:30	62.1	62.1	62.1	96	60.9	0	1	45	0.00	29.883 
00:35	62.1	62.1	62.1	96	60.9	0	1	45	0.00	29.883 
00:40	62.1	62.1	62.1	96	60.9	0	0	---	0.00	29.883 
00:45	62.1	62.1	62.1	96	60.9	0	0	---	0.00	29.881 
00:50	62.1	62.1	62.1	96	60.9	0	0	---	0.00	29.881 
00:55	62.0	62.0	62.0	96	60.8	0	0	---	0.00	29.881 
01:00	61.8	61.8	61.8	96	60.6	0	0	---	0.00	29.881 
01:05	61.8	61.8	61.8	96	60.6	0	0	---	0.00	29.881 
01:10	61.6	61.6	61.6	96	60.4	0	0	---	0.00	29.881 
01:15	61.5	61.5	61.5	96	60.3	0	0	---	0.00	29.872 
01:20	61.5	61.5	61.5	96	60.3	0	0	---	0.00	29.872 
01:25	61.3	61.3	61.3	96	60.1	0	0	---	0.00	29.872 
01:30	61.2	61.2	61.2	96	60.0	0	1	45	0.00	29.871 
01:35	61.2	61.2	61.2	96	60.0	0	0	---	0.01	29.871 
01:40	61.3	61.3	61.3	96	60.1	0	0	---	0.00	29.871 
01:45	61.5	61.5	61.5	96	60.3	0	0	---	0.00	29.867 
01:50	61.3	61.3	61.3	96	60.1	0	0	---	0.00	29.867 
01:55	61.3	61.3	61.3	96	60.1	0	0	---	0.00	29.867 
02:00	61.2	61.2	61.2	96	60.0	0	0	---	0.00	29.863 
02:05	61.0	61.0	61.0	96	59.8	0	0	---	0.00	29.863 
02:10	60.9	60.9	60.9	96	59.7	0	0	---	0.00	29.863 
02:15	60.9	60.9	60.9	96	59.7	0	0	---	0.00	29.856 
02:20	60.9	60.9	60.9	96	59.7	0	0	---	0.00	29.856 
02:25	60.9	60.9	60.9	96	59.7	0	0	---	0.00	29.856 
02:30	60.9	60.9	60.9	96	59.7	0	0	---	0.00	29.854 
02:35	60.9	60.9	60.9	96	59.7	0	0	---	0.00	29.854 
02:40	60.9	60.9	60.9	96	59.7	0	0	---	0.00	29.854 
02:45	61.0	61.0	61.0	96	59.8	0	0	---	0.00	29.857 
02:50	60.9	60.9	60.9	96	59.7	0	0	---	0.00	29.857 
02:55	60.9	60.9	60.9	96	59.7	0	2	45	0.00	29.857 
03:00	60.9	60.9	60.9	96	59.7	0	0	---	0.00	29.854 
03:05	60.9	60.9	60.9	96	59.7	0	0	---	0.00	29.854 
03:10	60.9	60.9	60.9	96	59.7	0	0	---	0.00	29.854 
03:15	60.7	60.7	60.7	96	59.6	0	0	---	0.00	29.851 
03:20	60.7	60.7	60.7	96	59.6	0	0	---	0.00	29.851 
03:25	60.7	60.7	60.7	97	59.8	0	1	45	0.00	29.851 
03:30	60.7	60.7	60.7	97	59.8	0	1	45	0.00	29.855 
03:35	60.7	60.7	60.7	97	59.8	0	0	---	0.00	29.855 
03:40	60.7	60.7	60.7	96	59.6	0	0	---	0.00	29.855 
03:45	60.5	60.5	60.5	96	59.4	0	0	---	0.00	29.856 
03:50	60.5	60.5	60.5	97	59.6	0	0	---	0.00	29.856 
03:55	60.4	60.4	60.4	97	59.5	0	0	---	0.00	29.856 
04:00	60.5	60.5	60.5	97	59.6	0	0	---	0.00	29.852 
04:05	60.5	60.5	60.5	97	59.6	0	1	45	0.00	29.852 
04:10	60.5	60.5	60.5	97	59.6	0	0	---	0.00	29.852 
04:15	60.7	60.7	60.7	97	59.8	0	0	---	0.00	29.855 
04:20	60.7	60.7	60.7	97	59.8	0	0	---	0.00	29.855 
04:25	60.7	60.7	60.7	97	59.8	0	0	---	0.00	29.855 
04:30	60.5	60.5	60.5	97	59.6	0	0	---	0.00	29.855 
04:35	60.4	60.4	60.4	97	59.5	0	0	---	0.00	29.855 
04:40	60.1	60.1	60.1	97	59.2	0	0	---	0.00	29.855 
04:45	59.9	59.9	59.9	97	59.0	0	0	---	0.00	29.862 
04:50	59.6	59.6	59.6	97	58.7	0	0	---	0.00	29.862 
04:55	59.5	59.5	59.5	97	58.6	0	0	---	0.00	29.862 
05:00	59.2	59.2	59.2	97	58.3	0	0	---	0.00	29.862 
05:05	59.0	59.0	59.0	97	58.1	0	0	---	0.00	29.862 
05:10	58.7	58.7	58.7	97	57.8	0	0	---	0.00	29.862 
05:15	58.6	58.6	58.6	97	57.7	0	0	---	0.00	29.871 
05:20	58.7	58.7	58.7	97	57.8	0	0	---	0.00	29.871 
05:25	59.0	59.0	59.0	97	58.1	0	0	---	0.00	29.871 
05:30	59.5	59.5	59.5	97	58.6	0	0	---	0.00	29.875 
05:35	60.1	60.1	60.1	97	59.2	0	1	45	0.00	29.875 
05:40	60.4	60.4	60.4	97	59.5	0	1	45	0.00	29.875 
05:45	60.7	60.7	60.7	97	59.8	0	2	45	0.00	29.876 
05:50	60.9	60.9	60.9	97	60.0	0	1	45	0.00	29.876 
05:55	60.9	60.9	60.9	97	60.0	0	0	---	0.00	29.876 
06:00	60.9	60.9	60.9	97	60.0	1	4	292	0.00	29.889 
06:05	60.9	60.9	60.9	97	60.0	1	2	292	0.00	29.889 
06:10	60.9	60.9	60.9	97	60.0	0	1	292	0.00	29.889 
06:15	60.9	60.9	60.9	97	60.0	0	1	292	0.00	29.889 
06:20	60.7	60.7	60.7	97	59.8	0	2	292	0.00	29.889 
06:25	60.7	60.7	60.7	97	59.8	0	1	292	0.00	29.889 
06:30	60.7	60.7	60.7	97	59.8	0	2	292	0.00	29.892 
06:35	60.7	60.7	60.7	97	59.8	0	0	---	0.00	29.892 
06:40	60.7	60.7	60.7	97	59.8	0	0	---	0.00	29.892 
06:45	60.7	60.7	60.7	97	59.8	0	0	---	0.00	29.904 
06:50	60.9	60.9	60.9	97	60.0	0	0	---	0.00	29.904 
06:55	60.9	60.9	60.9	97	60.0	0	0	---	0.00	29.904 
07:00	60.9	60.9	60.9	97	60.0	0	0	---	0.00	29.916 
07:05	60.9	60.9	60.9	97	60.0	0	0	---	0.00	29.916 
07:10	60.9	60.9	60.9	97	60.0	0	1	292	0.00	29.916 
07:15	61.0	61.0	61.0	97	60.1	0	1	292	0.00	29.920 
07:20	61.2	61.2	61.2	97	60.3	0	1	0	0.00	29.920 
07:25	61.2	61.2	61.2	97	60.3	0	0	---	0.00	29.920 
07:30	61.3	61.3	61.3	97	60.4	0	2	0	0.00	29.921 
07:35	61.3	61.3	61.3	97	60.4	0	2	292	0.00	29.921 
07:40	61.5	61.5	61.5	97	60.6	0	2	292	0.00	29.921 
07:45	61.5	61.5	61.5	97	60.6	0	2	292	0.00	29.923 
07:50	61.5	61.5	61.5	97	60.6	0	2	292	0.00	29.923 
07:55	61.5	61.5	61.5	97	60.6	0	1	292	0.00	29.923 
08:00	61.6	61.6	61.6	97	60.7	0	1	292	0.00	29.933 
08:05	61.6	61.6	61.6	97	60.7	0	1	292	0.00	29.933 
08:10	61.8	61.8	61.8	97	60.9	0	1	292	0.00	29.933 
08:15	61.8	61.8	61.8	97	60.9	0	0	---	0.00	29.938 
08:20	62.0	62.0	62.0	97	61.1	0	1	292	0.00	29.938 
08:25	62.0	62.0	62.0	97	61.1	0	1	292	0.00	29.938 
08:30	62.0	62.0	62.0	97	61.1	0	1	292	0.00	29.950 
08:35	62.0	62.0	62.0	97	61.1	0	1	292	0.00	29.950 
08:40	62.0	62.0	62.0	97	61.1	0	2	292	0.00	29.950 
08:45	62.0	62.0	62.0	97	61.1	0	2	292	0.00	29.951 
08:50	62.1	62.1	62.1	97	61.2	0	1	292	0.00	29.951 
08:55	62.3	62.3	62.3	97	61.4	0	0	---	0.00	29.951 
09:00	62.3	62.3	62.3	97	61.4	0	1	292	0.00	29.950 
09:05	62.4	62.4	62.4	97	61.5	0	1	292	0.00	29.950 
09:10	62.6	62.6	62.6	97	61.7	0	1	292	0.00	29.950 
09:15	62.6	62.6	62.6	97	61.7	0	1	0	0.00	29.952 
09:20	62.4	62.4	62.4	97	61.5	0	2	315	0.00	29.952 
09:25	62.4	62.4	62.4	97	61.5	0	2	315	0.00	29.952 
09:30	62.4	62.4	62.4	97	61.5	0	2	315	0.00	29.954 
09:35	62.4	62.4	62.4	97	61.5	0	1	315	0.00	29.954 
09:40	62.6	62.6	62.6	97	61.7	0	3	315	0.00	29.954 
09:45	62.7	62.7	62.7	97	61.8	0	1	315	0.00	29.958 
09:50	62.7	62.7	62.7	97	61.8	0	2	315	0.00	29.958 
09:55	62.9	62.9	62.9	97	62.0	0	2	315	0.00	29.958 
10:00	63.1	63.1	63.1	97	62.2	0	2	315	0.00	29.963 
10:05	62.9	62.9	62.9	97	62.0	0	1	292	0.00	29.963 
10:10	62.9	62.9	62.9	97	62.0	1	2	292	0.00	29.963 
10:15	62.9	62.9	62.9	97	62.0	1	2	292	0.00	29.967 
10:20	63.1	63.1	63.1	97	62.2	0	2	292	0.00	29.967 
10:25	63.2	63.2	63.2	97	62.3	0	2	292	0.00	29.967 
10:30	63.4	63.4	63.4	97	62.5	0	2	292	0.00	29.968 
10:35	63.4	63.4	63.4	97	62.5	1	3	292	0.00	29.968 
10:40	63.4	63.4	63.4	97	62.5	0	2	292	0.00	29.968 
10:45	63.5	63.5	63.5	97	62.6	0	2	292	0.00	29.966 
10:50	63.7	63.7	63.7	97	62.8	0	2	270	0.00	29.966 
10:55	63.7	63.7	63.7	97	62.8	1	4	270	0.00	29.966 
11:00	63.7	63.7	63.7	97	62.8	1	3	270	0.00	29.966 
11:05	63.9	63.9	63.9	97	63.0	0	2	270	0.00	29.966 
11:10	64.3	64.3	64.3	97	63.4	1	3	270	0.00	29.966 
11:15	64.5	64.5	64.5	97	63.6	1	3	270	0.00	29.967 
11:20	64.7	64.7	64.7	96	63.5	0	2	270	0.00	29.967 
11:25	65.0	65.0	65.0	96	63.8	1	3	270	0.00	29.967 
11:30	65.0	65.0	65.0	96	63.8	1	3	270	0.00	29.966 
11:35	65.0	65.0	65.0	95	63.5	1	4	270	0.00	29.966 
11:40	64.7	64.7	64.7	94	62.9	1	2	292	0.00	29.966 
11:45	65.2	65.2	65.2	93	63.1	0	2	292	0.00	29.977 
11:50	65.6	65.6	65.6	93	63.5	0	1	292	0.00	29.977 
11:55	66.1	66.1	66.1	92	63.7	0	1	292	0.00	29.977 
12:00	66.4	66.4	66.4	91	63.7	0	2	292	0.00	29.977 
12:05	66.1	66.1	66.1	88	62.4	1	3	292	0.00	29.977 
12:10	66.1	66.1	66.1	88	62.4	0	2	292	0.00	29.977 
12:15	66.4	66.4	66.4	88	62.7	1	2	292	0.00	29.979 
12:20	67.3	67.3	67.3	88	63.6	1	2	292	0.00	29.979 
12:25	67.4	67.4	67.4	85	62.7	1	4	292	0.00	29.979 
12:30	67.6	67.6	67.6	85	62.9	0	2	292	0.00	29.974 
12:35	68.1	68.1	68.1	85	63.4	1	3	292	0.00	29.974 
12:40	68.6	68.6	68.6	84	63.6	1	3	270	0.00	29.974 
12:45	69.1	69.1	69.1	82	63.4	1	3	292	0.00	29.978 
12:50	69.1	69.1	69.1	80	62.7	1	4	270	0.00	29.978 
12:55	69.3	69.3	69.3	80	62.9	0	2	270	0.00	29.978 
13:00	69.3	69.3	69.3	78	62.1	1	4	270	0.00	29.974 
13:05	69.4	69.4	69.4	77	61.9	1	3	248	0.00	29.974 
13:10	69.4	69.4	69.4	75	61.1	1	2	248	0.00	29.974 
13:15	69.9	69.9	69.9	74	61.2	2	4	292	0.00	29.969 
13:20	70.1	70.1	70.1	73	61.0	1	4	292	0.00	29.969 
13:25	70.4	70.4	70.4	74	61.7	1	3	292	0.00	29.969 
13:30	70.4	70.4	70.4	73	61.3	0	2	292	0.00	29.969 
13:35	69.8	69.8	69.8	73	60.7	2	4	292	0.00	29.969 
13:40	69.1	69.1	69.1	74	60.5	1	3	315	0.00	29.969 
13:45	69.3	69.3	69.3	76	61.4	1	2	338	0.00	29.975 
13:50	69.9	69.9	69.9	75	61.6	1	4	338	0.00	29.975 
13:55	70.8	70.8	70.8	74	62.1	1	3	292	0.00	29.975 
14:00	71.5	71.5	71.5	72	62.0	1	4	292	0.00	29.975 
14:05	71.3	71.3	71.3	70	61.0	1	2	292	0.00	29.975 
14:10	71.1	71.1	71.1	71	61.2	0	2	292	0.00	29.975 
14:15	70.9	70.9	70.9	73	61.8	1	3	292	0.00	29.976 
14:20	70.8	70.8	70.8	73	61.7	1	3	292	0.00	29.976 
14:25	70.6	70.6	70.6	73	61.5	0	2	292	0.00	29.976 
14:30	70.8	70.8	70.8	73	61.7	0	3	292	0.00	29.977 
14:35	70.4	70.4	70.4	73	61.3	0	2	292	0.00	29.977 
14:40	70.3	70.3	70.3	74	61.6	0	2	292	0.00	29.977 
14:45	70.4	70.4	70.4	76	62.5	1	2	292	0.00	29.980 
14:50	70.8	70.8	70.8	73	61.7	1	3	292	0.00	29.980 
14:55	70.9	70.9	70.9	73	61.8	1	2	292	0.00	29.980 
15:00	70.8	70.8	70.8	73	61.7	2	4	270	0.00	29.977 
15:05	70.8	70.8	70.8	73	61.7	1	3	270	0.00	29.977 
15:10	70.8	70.8	70.8	73	61.7	1	3	270	0.00	29.977 
15:15	70.8	70.8	70.8	72	61.3	1	4	270	0.00	29.980 
15:20	70.8	70.8	70.8	72	61.3	1	3	270	0.00	29.980 
15:25	70.6	70.6	70.6	71	60.7	1	3	338	0.00	29.980 
15:30	70.6	70.6	70.6	70	60.3	1	3	338	0.00	29.982 
15:35	70.8	70.8	70.8	72	61.3	1	3	338	0.00	29.982 
15:40	71.3	71.3	71.3	71	61.4	1	3	338	0.00	29.982 
15:45	71.8	71.8	71.8	73	62.7	2	3	315	0.00	29.984 
15:50	72.8	72.8	72.8	73	63.6	2	4	248	0.00	29.984 
15:55	73.3	73.3	73.3	69	62.5	2	4	248	0.00	29.984 
16:00	73.2	73.2	73.2	70	62.8	1	3	248	0.00	29.984 
16:05	72.5	72.5	72.5	70	62.1	1	3	248	0.00	29.984 
16:10	72.1	72.1	72.1	71	62.2	1	3	248	0.00	29.984 
16:15	71.8	71.8	71.8	71	61.9	1	3	248	0.00	29.984 
16:20	71.8	71.8	71.8	73	62.7	0	2	248	0.00	29.984 
16:25	72.1	72.1	72.1	73	63.0	1	3	248	0.00	29.984 
16:30	72.8	72.8	72.8	72	63.2	1	3	248	0.00	29.979 
16:35	73.5	73.5	73.5	69	62.7	1	3	248	0.00	29.979 
16:40	73.2	73.2	73.2	68	62.0	1	3	248	0.00	29.979 
16:45	73.0	73.0	73.0	70	62.6	1	3	248	0.00	29.976 
16:50	73.5	73.5	73.5	67	61.9	1	2	248	0.00	29.976 
16:55	73.7	73.7	73.7	66	61.6	1	4	248	0.00	29.976 
17:00	73.9	73.9	73.9	66	61.8	1	3	248	0.00	29.978 
17:05	73.9	73.9	73.9	68	62.7	1	3	248	0.00	29.978 
17:10	73.7	73.7	73.7	65	61.2	2	4	248	0.00	29.978 
17:15	74.0	74.0	74.0	66	61.9	1	2	248	0.00	29.978 
17:20	74.2	74.2	74.2	64	61.2	1	4	270	0.00	29.978 
17:25	74.2	74.2	74.2	65	61.7	0	3	270	0.00	29.978 
17:30	74.2	74.2	74.2	64	61.2	1	3	270	0.00	29.976 
17:35	74.6	74.6	74.6	66	62.5	0	2	270	0.00	29.976 
17:40	74.4	74.4	74.4	63	61.0	0	1	270	0.00	29.976 
17:45	74.0	74.0	74.0	65	61.5	1	3	270	0.00	29.977 
17:50	74.4	74.4	74.4	64	61.4	0	2	270	0.00	29.977 
17:55	74.7	74.7	74.7	62	60.8	1	5	270	0.00	29.977 
18:00	74.9	74.9	74.9	62	61.0	1	2	270	0.00	29.978 
18:05	74.6	74.6	74.6	60	59.8	1	3	270	0.00	29.978 
18:10	74.0	74.0	74.0	64	61.0	0	2	270	0.00	29.978 
18:15	73.5	73.5	73.5	64	60.6	0	1	270	0.00	29.984 
18:20	73.0	73.0	73.0	64	60.1	0	1	270	0.00	29.984 
18:25	72.7	72.7	72.7	65	60.2	0	1	270	0.00	29.984 
18:30	72.5	72.5	72.5	67	60.9	0	1	270	0.00	29.985 
18:35	72.3	72.3	72.3	67	60.7	0	1	270	0.00	29.985 
18:40	72.3	72.3	72.3	66	60.3	0	1	270	0.00	29.985 
18:45	72.1	72.1	72.1	68	60.9	0	1	270	0.00	29.981 
18:50	72.1	72.1	72.1	68	60.9	0	1	270	0.00	29.981 
18:55	72.1	72.1	72.1	68	60.9	0	1	270	0.00	29.981 
19:00	72.7	72.7	72.7	66	60.7	1	2	270	0.00	29.978 
19:05	72.8	72.8	72.8	66	60.8	0	1	270	0.00	29.978 
19:10	72.8	72.8	72.8	66	60.8	0	1	270	0.00	29.978 
19:15	72.8	72.8	72.8	65	60.3	1	2	270	0.00	29.979 
19:20	72.7	72.7	72.7	65	60.2	0	1	270	0.00	29.979 
19:25	72.5	72.5	72.5	65	60.0	0	2	270	0.00	29.979 
19:30	72.3	72.3	72.3	66	60.3	0	1	270	0.00	29.976 
19:35	72.3	72.3	72.3	66	60.3	0	0	---	0.00	29.976 
19:40	72.1	72.1	72.1	66	60.1	0	1	270	0.00	29.976 
19:45	72.0	72.0	72.0	67	60.4	0	0	---	0.00	29.976 
19:50	71.8	71.8	71.8	67	60.2	0	1	270	0.00	29.976 
19:55	71.8	71.8	71.8	67	60.2	0	1	270	0.00	29.976 
20:00	71.8	71.8	71.8	67	60.2	0	1	270	0.00	29.977 
20:05	71.6	71.6	71.6	68	60.5	0	0	---	0.00	29.977 
20:10	71.5	71.5	71.5	69	60.8	0	0	---	0.00	29.977 
20:15	71.3	71.3	71.3	68	60.2	0	1	270	0.00	29.986 
20:20	70.9	70.9	70.9	69	60.2	0	0	---	0.00	29.986 
20:25	70.8	70.8	70.8	69	60.1	0	1	270	0.00	29.986 
20:30	70.4	70.4	70.4	70	60.1	0	0	---	0.00	29.991 
20:35	70.3	70.3	70.3	70	60.0	0	0	---	0.00	29.991 
20:40	69.9	69.9	69.9	71	60.1	0	0	---	0.00	29.991 
20:45	69.6	69.6	69.6	71	59.8	0	0	---	0.00	29.991 
20:50	69.3	69.3	69.3	72	59.9	0	0	---	0.00	29.991 
20:55	68.9	68.9	68.9	73	59.9	0	0	---	0.00	29.991 
21:00	68.4	68.4	68.4	74	59.8	0	0	---	0.00	29.991 
21:05	68.1	68.1	68.1	75	59.9	0	0	---	0.00	29.991 
21:10	67.6	67.6	67.6	76	59.8	0	0	---	0.00	29.991 
21:15	67.1	67.1	67.1	78	60.0	0	0	---	0.00	29.993 
21:20	66.8	66.8	66.8	79	60.1	0	0	---	0.00	29.993 
21:25	66.3	66.3	66.3	80	59.9	0	0	---	0.00	29.993 
21:30	65.8	65.8	65.8	81	59.8	0	0	---	0.00	29.996 
21:35	65.5	65.5	65.5	82	59.9	0	0	---	0.00	29.996 
21:40	65.2	65.2	65.2	83	59.9	0	0	---	0.00	29.996 
21:45	64.8	64.8	64.8	84	59.8	0	0	---	0.00	30.004 
21:50	64.5	64.5	64.5	85	59.9	0	0	---	0.00	30.004 
21:55	64.2	64.2	64.2	86	59.9	0	0	---	0.00	30.004 
22:00	63.9	63.9	63.9	87	59.9	0	0	---	0.00	30.012 
22:05	63.5	63.5	63.5	87	59.6	0	0	---	0.00	30.012 
22:10	63.2	63.2	63.2	88	59.6	0	0	---	0.00	30.012 
22:15	63.1	63.1	63.1	88	59.5	0	0	---	0.00	30.013 
22:20	62.9	62.9	62.9	89	59.6	0	0	---	0.00	30.013 
22:25	62.7	62.7	62.7	89	59.4	0	0	---	0.00	30.013 
22:30	62.4	62.4	62.4	90	59.4	0	0	---	0.00	30.013 
22:35	62.3	62.3	62.3	90	59.3	0	0	---	0.00	30.013 
22:40	62.1	62.1	62.1	90	59.1	0	0	---	0.00	30.013 
22:45	62.0	62.0	62.0	90	59.0	0	0	---	0.00	30.016 
22:50	61.8	61.8	61.8	91	59.1	0	0	---	0.00	30.016 
22:55	61.6	61.6	61.6	91	58.9	0	0	---	0.00	30.016 
23:00	61.5	61.5	61.5	91	58.8	0	0	---	0.00	30.018 
23:05	61.2	61.2	61.2	91	58.5	0	0	---	0.00	30.018 
23:10	61.0	61.0	61.0	91	58.4	0	0	---	0.00	30.018 
23:15	60.9	60.9	60.9	92	58.6	0	0	---	0.00	30.016 
23:20	60.7	60.7	60.7	92	58.4	0	0	---	0.00	30.016 
23:25	60.5	60.5	60.5	92	58.2	0	0	---	0.00	30.016 
23:30	60.4	60.4	60.4	92	58.1	0	0	---	0.00	30.014 
23:35	60.2	60.2	60.2	92	57.9	0	0	---	0.00	30.014 
23:40	60.2	60.2	60.2	92	57.9	0	0	---	0.00	30.014 
23:45	60.1	60.1	60.1	93	58.1	0	0	---	0.00	30.015 
23:50	59.9	59.9	59.9	93	57.9	0	0	---	0.00	30.015 
23:55	59.9	59.9	59.9	93	57.9	0	0	---	0.00	30.015 

CoCoRaHS
IN-AL-39
A2 Web Hosting
Creative Commons License
GoDaddy
search engine by freefind advanced

loaded 2018-11-15 05:36:35 • last modified 2010-11-18 10:43:29
Privacy PolicyDisclaimer
• wx.awcolley.com is powered by PmWiki v.2002016 •
• all content (unless otherwise noted) © 2018 A W Colley